createdAt,value
2023-01-06T00:00:06.107Z,101572.34
2023-01-06T00:02:33.922Z,101565.97
2023-01-06T00:05:01.935Z,101563.25
2023-01-06T00:07:29.853Z,101560.50
2023-01-06T00:09:57.631Z,101556.00
2023-01-06T00:12:27.541Z,101551.28
2023-01-06T00:14:55.621Z,101562.38
2023-01-06T00:17:23.622Z,101552.28
2023-01-06T00:19:51.753Z,101553.28
2023-01-06T00:22:19.595Z,101554.25
2023-01-06T00:24:47.375Z,101553.28
2023-01-06T00:27:15.147Z,101548.78
2023-01-06T00:29:44.594Z,101550.41
2023-01-06T00:32:12.336Z,101542.31
2023-01-06T00:34:40.260Z,101542.44
2023-01-06T00:37:08.036Z,101541.44
2023-01-06T00:39:35.839Z,101535.09
2023-01-06T00:42:06.938Z,101538.69
2023-01-06T00:44:36.859Z,101542.31
2023-01-06T00:47:07.409Z,101540.44
2023-01-06T00:49:35.653Z,101535.97
2023-01-06T00:52:03.778Z,101532.34
2023-01-06T00:54:31.733Z,101521.38
2023-01-06T00:56:59.629Z,101519.53
2023-01-06T00:59:27.909Z,101525.88
2023-01-06T01:01:58.045Z,101509.44
2023-01-06T01:04:27.818Z,101512.19
2023-01-06T01:06:56.278Z,101518.66
2023-01-06T01:09:26.205Z,101510.44
2023-01-06T01:12:14.136Z,101493.13
2023-01-06T01:14:47.126Z,101503.22
2023-01-06T01:17:19.428Z,101502.34
2023-01-06T01:19:50.267Z,101505.19
2023-01-06T01:22:18.571Z,101505.34
2023-01-06T01:24:46.332Z,101514.41
2023-01-06T01:27:14.853Z,101519.88
2023-01-06T01:29:42.663Z,101509.06
2023-01-06T01:32:10.789Z,101518.16
2023-01-06T01:34:39.428Z,101514.53
2023-01-06T01:37:08.696Z,101525.34
2023-01-06T01:39:36.462Z,101522.75
2023-01-06T01:42:05.618Z,101520.03
2023-01-06T01:44:57.000Z,101515.41
2023-01-06T01:47:32.289Z,101517.28
2023-01-06T01:50:03.881Z,101515.41
2023-01-06T01:52:34.530Z,101513.66
2023-01-06T01:55:03.655Z,101510.94
2023-01-06T01:57:40.819Z,101505.34
2023-01-06T02:00:10.404Z,101496.38
2023-01-06T02:02:42.848Z,101500.19
2023-01-06T02:05:13.433Z,101490.00
2023-01-06T02:07:43.281Z,101497.34
2023-01-06T02:10:14.170Z,101500.09
2023-01-06T02:12:42.975Z,101487.38
2023-01-06T02:15:23.924Z,101496.38
2023-01-06T02:18:23.413Z,101491.22
2023-01-06T02:21:13.644Z,101487.38
2023-01-06T02:24:24.553Z,101483.00
2023-01-06T02:27:09.256Z,101475.56
2023-01-06T02:30:08.357Z,101483.28
2023-01-06T02:32:49.119Z,101476.53
2023-01-06T02:35:36.478Z,101484.66
2023-01-06T02:38:14.779Z,101472.94
2023-01-06T02:40:55.233Z,101471.94
2023-01-06T02:43:28.777Z,101465.59
2023-01-06T02:46:11.254Z,101465.59
2023-01-06T02:48:50.977Z,101464.00
2023-01-06T02:51:25.665Z,101456.50
2023-01-06T02:54:07.602Z,101449.16
2023-01-06T02:56:40.509Z,101454.63
2023-01-06T02:59:15.855Z,101442.81
2023-01-06T03:01:47.889Z,101439.19
2023-01-06T03:04:21.727Z,101440.94
2023-01-06T03:06:52.867Z,101435.47
2023-01-06T03:09:25.415Z,101434.59
2023-01-06T03:11:53.434Z,101428.50
2023-01-06T03:14:26.814Z,101428.13
2023-01-06T03:16:55.844Z,101440.94
2023-01-06T03:19:26.238Z,101434.47
2023-01-06T03:21:55.796Z,101429.00
2023-01-06T03:24:24.684Z,101430.00
2023-01-06T03:26:54.555Z,101442.69
2023-01-06T03:29:24.514Z,101427.25
2023-01-06T03:32:02.334Z,101433.38
2023-01-06T03:35:02.917Z,101429.88
2023-01-06T03:37:42.451Z,101426.25
2023-01-06T03:40:16.399Z,101434.47
2023-01-06T03:43:06.625Z,101419.78
2023-01-06T03:45:50.590Z,101424.41
2023-01-06T03:48:27.559Z,101420.78
2023-01-06T03:51:03.102Z,101405.22
2023-01-06T03:53:43.068Z,101405.09
2023-01-06T03:56:20.135Z,101394.16
2023-01-06T03:58:54.409Z,101396.03
2023-01-06T04:01:25.014Z,101397.88
2023-01-06T04:03:54.341Z,101403.47
2023-01-06T04:06:25.548Z,101397.00
2023-01-06T04:08:54.126Z,101387.91
2023-01-06T04:11:39.558Z,101388.78
2023-01-06T04:14:09.184Z,101395.38
2023-01-06T04:16:37.091Z,101395.38
2023-01-06T04:19:05.206Z,101398.88
2023-01-06T04:21:34.688Z,101397.88
2023-01-06T04:24:02.551Z,101398.00
2023-01-06T04:26:30.392Z,101380.69
2023-01-06T04:28:58.208Z,101390.66
2023-01-06T04:31:26.162Z,101379.72
2023-01-06T04:33:55.500Z,101376.97
2023-01-06T04:36:23.427Z,101368.75
2023-01-06T04:38:55.931Z,101374.09
2023-01-06T04:41:23.883Z,101373.34
2023-01-06T04:43:51.690Z,101377.97
2023-01-06T04:46:19.532Z,101374.22
2023-01-06T04:48:47.293Z,101360.53
2023-01-06T04:51:15.071Z,101370.63
2023-01-06T04:53:42.877Z,101371.50
2023-01-06T04:56:13.600Z,101359.44
2023-01-06T04:58:41.738Z,101363.28
2023-01-06T05:01:11.834Z,101368.63
2023-01-06T05:03:40.171Z,101362.28
2023-01-06T05:06:10.352Z,101365.91
2023-01-06T05:08:39.027Z,101370.50
2023-01-06T05:11:09.435Z,101364.03
2023-01-06T05:13:39.166Z,101362.16
2023-01-06T05:16:08.508Z,101355.81
2023-01-06T05:18:36.672Z,101356.81
2023-01-06T05:21:04.589Z,101348.59
2023-01-06T05:23:32.905Z,101352.19
2023-01-06T05:26:00.893Z,101346.72
2023-01-06T05:28:30.253Z,101353.06
2023-01-06T05:31:01.612Z,101346.59
2023-01-06T05:33:29.611Z,101346.72
2023-01-06T05:36:00.957Z,101349.34
2023-01-06T05:38:28.776Z,101349.47
2023-01-06T05:40:57.756Z,101360.41
2023-01-06T05:43:27.205Z,101353.94
2023-01-06T05:45:56.091Z,101356.81
2023-01-06T05:48:28.005Z,101354.94
2023-01-06T05:51:02.402Z,101356.81
2023-01-06T05:53:33.553Z,101364.16
2023-01-06T05:56:02.644Z,101361.41
2023-01-06T05:58:31.017Z,101365.25
2023-01-06T06:00:58.848Z,101355.19
2023-01-06T06:03:28.096Z,101362.28
2023-01-06T06:05:56.261Z,101355.06
2023-01-06T06:08:24.021Z,101347.84
2023-01-06T06:10:51.809Z,101356.06
2023-01-06T06:13:19.565Z,101361.53
2023-01-06T06:15:47.437Z,101354.31
2023-01-06T06:18:15.260Z,101355.19
2023-01-06T06:20:44.398Z,101349.59
2023-01-06T06:23:12.175Z,101340.50
2023-01-06T06:25:40.028Z,101337.88
2023-01-06T06:28:07.791Z,101340.50
2023-01-06T06:30:35.701Z,101343.34
2023-01-06T06:33:03.863Z,101341.47
2023-01-06T06:35:31.732Z,101331.53
2023-01-06T06:38:00.837Z,101326.81
2023-01-06T06:40:28.705Z,101336.00
2023-01-06T06:42:56.470Z,101335.13
2023-01-06T06:45:24.489Z,101330.53
2023-01-06T06:47:54.830Z,101332.28
2023-01-06T06:50:22.661Z,101325.06
2023-01-06T06:52:50.443Z,101325.06
2023-01-06T06:55:19.673Z,101331.28
2023-01-06T06:57:47.425Z,101331.41
2023-01-06T07:00:16.304Z,101330.41
2023-01-06T07:02:44.541Z,101341.38
2023-01-06T07:05:12.376Z,101334.13
2023-01-06T07:07:40.257Z,101330.41
2023-01-06T07:10:08.683Z,101323.06
2023-01-06T07:12:37.823Z,101313.00
2023-01-06T07:15:06.552Z,101312.13
2023-01-06T07:17:34.385Z,101311.25
2023-01-06T07:20:02.214Z,101315.72
2023-01-06T07:22:30.169Z,101313.09
2023-01-06T07:24:58.030Z,101321.31
2023-01-06T07:27:25.821Z,101316.72
2023-01-06T07:29:55.123Z,101322.06
2023-01-06T07:32:22.947Z,101321.31
2023-01-06T07:34:50.792Z,101323.19
2023-01-06T07:37:18.582Z,101322.19
2023-01-06T07:39:46.697Z,101326.81
2023-01-06T07:42:14.525Z,101329.53
2023-01-06T07:44:42.398Z,101337.75
2023-01-06T07:47:11.776Z,101332.16
2023-01-06T07:49:39.559Z,101335.00
2023-01-06T07:52:07.358Z,101335.00
2023-01-06T07:54:35.379Z,101339.63
2023-01-06T07:57:03.165Z,101336.75
2023-01-06T07:59:30.998Z,101344.97
2023-01-06T08:01:58.931Z,101339.50
2023-01-06T08:04:28.197Z,101338.38
2023-01-06T08:06:56.199Z,101350.34
2023-01-06T08:09:24.043Z,101346.59
2023-01-06T08:11:51.770Z,101349.22
2023-01-06T08:14:19.654Z,101343.75
2023-01-06T08:16:47.465Z,101345.47
2023-01-06T08:19:15.299Z,101352.81
2023-01-06T08:21:44.476Z,101353.56
2023-01-06T08:24:12.580Z,101359.16
2023-01-06T08:26:40.447Z,101356.28
2023-01-06T08:29:08.515Z,101358.16
2023-01-06T08:31:36.822Z,101367.25
2023-01-06T08:34:05.615Z,101373.72
2023-01-06T08:36:33.441Z,101379.97
2023-01-06T08:39:02.654Z,101378.84
2023-01-06T08:41:30.467Z,101365.16
2023-01-06T08:43:58.343Z,101377.69
2023-01-06T08:46:26.721Z,101379.31
2023-01-06T08:48:56.884Z,101390.03
2023-01-06T08:51:25.722Z,101380.84
2023-01-06T08:53:54.106Z,101378.97
2023-01-06T08:56:25.687Z,101386.91
2023-01-06T08:58:54.268Z,101386.03
2023-01-06T09:01:24.264Z,101397.00
2023-01-06T09:04:20.001Z,101395.41
2023-01-06T09:07:19.979Z,101398.25
2023-01-06T09:09:55.936Z,101402.59
2023-01-06T09:13:26.131Z,101406.38
2023-01-06T09:16:06.676Z,101406.47
2023-01-06T09:18:37.680Z,101406.59
2023-01-06T09:21:10.492Z,101412.72
2023-01-06T09:23:40.015Z,101409.34
2023-01-06T09:29:40.641Z,101427.53
2023-01-06T09:32:47.729Z,101439.59
2023-01-06T09:35:18.955Z,101420.53
2023-01-06T09:51:36.496Z,101445.69
2023-01-06T09:54:29.641Z,101441.97
2023-01-06T09:57:16.308Z,101437.47
2023-01-06T09:59:55.468Z,101442.84
2023-01-06T10:02:49.447Z,101442.84
2023-01-06T10:05:23.956Z,101440.09
2023-01-06T10:08:04.348Z,101438.97
2023-01-06T10:10:48.495Z,101448.06
2023-01-06T10:13:43.440Z,101449.06
2023-01-06T10:16:26.753Z,101454.53
2023-01-06T10:19:02.612Z,101464.63
2023-01-06T10:22:00.483Z,101467.25
2023-01-06T10:32:07.356Z,101458.50
2023-01-06T10:34:52.685Z,101465.84
2023-01-06T10:40:57.285Z,101462.25
2023-01-06T10:43:47.643Z,101458.63
2023-01-06T10:46:17.122Z,101454.91
2023-01-06T10:48:46.999Z,101458.50
2023-01-06T10:51:35.982Z,101457.41
2023-01-06T10:54:09.463Z,101466.72
2023-01-06T10:56:40.984Z,101452.03
2023-01-06T10:59:10.914Z,101461.00
2023-01-06T11:01:50.268Z,101461.78
2023-01-06T11:04:19.891Z,101451.91
2023-01-06T11:06:52.201Z,101449.78
2023-01-06T11:09:32.864Z,101448.91
2023-01-06T11:12:10.042Z,101456.16
2023-01-06T11:14:38.439Z,101438.09
2023-01-06T11:17:10.592Z,101450.66
2023-01-06T11:19:40.440Z,101447.94
2023-01-06T11:22:34.718Z,101441.34
2023-01-06T11:25:03.347Z,101434.88
2023-01-06T11:27:32.510Z,101444.44
2023-01-06T11:30:09.502Z,101441.72
2023-01-06T11:32:37.436Z,101442.47
2023-01-06T11:35:09.056Z,101453.91
2023-01-06T11:37:40.077Z,101442.84
2023-01-06T11:40:20.747Z,101442.47
2023-01-06T11:42:52.822Z,101431.50
2023-01-06T11:45:34.524Z,101438.59
2023-01-06T11:48:03.668Z,101431.13
2023-01-06T11:50:32.144Z,101427.28
2023-01-06T11:53:01.319Z,101426.75
2023-01-06T11:55:30.928Z,101431.00
2023-01-06T11:58:05.158Z,101425.00
2023-01-06T12:00:41.679Z,101434.47
2023-01-06T12:03:17.684Z,101431.50
2023-01-06T12:05:51.819Z,101430.13
2023-01-06T12:08:24.439Z,101430.72
2023-01-06T12:10:56.104Z,101426.84
2023-01-06T12:13:27.146Z,101421.00
2023-01-06T12:16:02.199Z,101430.56
2023-01-06T12:18:33.598Z,101423.97
2023-01-06T12:21:02.513Z,101427.31
2023-01-06T12:23:34.383Z,101421.47
2023-01-06T12:26:05.730Z,101428.69
2023-01-06T12:28:38.625Z,101435.53
2023-01-06T12:31:09.410Z,101433.22
2023-01-06T12:33:41.590Z,101432.91
2023-01-06T12:36:15.810Z,101432.50
2023-01-06T12:38:51.013Z,101430.38
2023-01-06T12:41:27.229Z,101438.59
2023-01-06T12:44:04.652Z,101433.13
2023-01-06T12:46:39.405Z,101435.97
2023-01-06T12:49:20.832Z,101426.88
2023-01-06T12:51:53.245Z,101433.38
2023-01-06T12:54:26.779Z,101428.16
2023-01-06T12:57:08.617Z,101433.66
2023-01-06T12:59:51.743Z,101431.91
2023-01-06T13:02:35.572Z,101426.53
2023-01-06T13:05:19.044Z,101426.66
2023-01-06T13:07:55.429Z,101430.41
2023-01-06T13:10:30.632Z,101430.41
2023-01-06T13:13:22.864Z,101435.00
2023-01-06T13:15:54.234Z,101424.31
2023-01-06T13:18:30.176Z,101422.44
2023-01-06T13:21:03.088Z,101435.28
2023-01-06T13:23:50.776Z,101428.81
2023-01-06T13:26:44.292Z,101426.44
2023-01-06T13:29:24.033Z,101425.44
2023-01-06T13:32:12.647Z,101424.56
2023-01-06T13:35:01.673Z,101417.34
2023-01-06T13:37:37.315Z,101421.06
2023-01-06T13:40:12.094Z,101418.34
2023-01-06T13:42:43.525Z,101419.38
2023-01-06T13:45:19.638Z,101421.06
2023-01-06T13:47:50.940Z,101416.75
2023-01-06T13:50:21.538Z,101409.38
2023-01-06T13:52:50.182Z,101415.88
2023-01-06T13:55:28.656Z,101409.38
2023-01-06T13:57:57.129Z,101412.38
2023-01-06T14:00:26.984Z,101405.16
2023-01-06T14:03:26.019Z,101407.13
2023-01-06T14:05:58.546Z,101417.97
2023-01-06T14:08:34.132Z,101417.97
2023-01-06T14:11:21.329Z,101415.25
2023-01-06T14:13:52.999Z,101423.59
2023-01-06T14:16:21.562Z,101421.88
2023-01-06T14:18:53.748Z,101423.59
2023-01-06T14:21:28.721Z,101431.09
2023-01-06T14:24:02.814Z,101434.84
2023-01-06T14:26:52.945Z,101428.72
2023-01-06T14:30:03.695Z,101421.66
2023-01-06T14:33:14.081Z,101416.28
2023-01-06T14:35:46.210Z,101424.63
2023-01-06T14:38:24.096Z,101418.28
2023-01-06T14:40:57.219Z,101424.63
2023-01-06T14:43:36.105Z,101420.91
2023-01-06T14:46:09.504Z,101422.88
2023-01-06T14:48:45.062Z,101428.38
2023-01-06T14:51:19.643Z,101421.16
2023-01-06T14:53:52.904Z,101425.75
2023-01-06T14:56:23.518Z,101427.63
2023-01-06T14:58:51.390Z,101429.66
2023-01-06T15:01:24.782Z,101425.75
2023-01-06T15:04:07.591Z,101420.38
2023-01-06T15:06:37.033Z,101428.97
2023-01-06T15:09:20.315Z,101424.28
2023-01-06T15:11:48.406Z,101422.88
2023-01-06T15:14:26.822Z,101418.41
2023-01-06T15:16:56.377Z,101420.53
2023-01-06T15:19:25.236Z,101418.78
2023-01-06T15:21:55.444Z,101419.66
2023-01-06T15:24:26.129Z,101417.03
2023-01-06T15:26:56.122Z,101408.94
2023-01-06T15:29:26.481Z,101409.91
2023-01-06T15:31:56.196Z,101418.28
2023-01-06T15:34:28.492Z,101415.69
2023-01-06T15:36:58.109Z,101410.44
2023-01-06T15:39:28.494Z,101418.66
2023-01-06T15:41:58.309Z,101411.44
2023-01-06T15:44:31.523Z,101414.16
2023-01-06T15:47:08.185Z,101412.41
2023-01-06T15:49:38.895Z,101415.31
2023-01-06T15:52:10.039Z,101419.94
2023-01-06T15:54:39.530Z,101416.31
2023-01-06T15:57:17.429Z,101417.31
2023-01-06T15:59:54.940Z,101425.53
2023-01-06T16:02:26.998Z,101428.50
2023-01-06T16:04:54.979Z,101429.66
2023-01-06T16:07:39.202Z,101431.25
2023-01-06T16:10:32.432Z,101424.00
2023-01-06T16:13:27.805Z,101428.03
2023-01-06T16:16:00.915Z,101416.19
2023-01-06T16:18:33.652Z,101429.78
2023-01-06T16:21:15.599Z,101424.53
2023-01-06T16:23:49.499Z,101422.66
2023-01-06T16:26:19.868Z,101414.56
2023-01-06T16:28:49.919Z,101415.44
2023-01-06T16:31:30.947Z,101427.25
2023-01-06T16:34:17.950Z,101429.25
2023-01-06T16:36:46.010Z,101424.91
2023-01-06T16:39:16.314Z,101429.25
2023-01-06T16:42:29.228Z,101432.00
2023-01-06T16:45:01.970Z,101436.88
2023-01-06T16:47:30.109Z,101442.56
2023-01-06T16:49:57.930Z,101444.44
2023-01-06T16:52:26.683Z,101443.22
2023-01-06T16:54:58.088Z,101443.97
2023-01-06T16:57:26.025Z,101441.59
2023-01-06T16:59:53.909Z,101441.47
2023-01-06T17:02:21.893Z,101436.97
2023-01-06T17:04:49.979Z,101438.72
2023-01-06T17:07:17.842Z,101437.84
2023-01-06T17:09:45.690Z,101421.41
2023-01-06T17:12:36.316Z,101428.53
2023-01-06T17:15:05.219Z,101433.25
2023-01-06T17:17:33.018Z,101434.13
2023-01-06T17:20:02.416Z,101439.59
2023-01-06T17:22:34.355Z,101435.88
2023-01-06T17:25:09.858Z,101445.97
2023-01-06T17:27:39.140Z,101446.72
2023-01-06T17:30:15.245Z,101452.19
2023-01-06T17:32:44.877Z,101449.47
2023-01-06T17:35:25.668Z,101460.16
2023-01-06T17:37:53.744Z,101458.53
2023-01-06T17:40:29.384Z,101450.19
2023-01-06T17:43:03.285Z,101443.72
2023-01-06T17:45:31.192Z,101441.97
2023-01-06T17:48:00.210Z,101444.69
2023-01-06T17:50:29.609Z,101439.97
2023-01-06T17:53:31.624Z,101430.88
2023-01-06T17:56:01.744Z,101439.34
2023-01-06T17:58:32.664Z,101439.09
2023-01-06T18:01:01.241Z,101431.00
2023-01-06T18:03:32.682Z,101427.25
2023-01-06T18:06:27.046Z,101427.66
2023-01-06T18:09:01.231Z,101423.78
2023-01-06T18:11:31.305Z,101428.25
2023-01-06T18:14:15.532Z,101435.47
2023-01-06T18:16:45.623Z,101431.00
2023-01-06T18:19:35.824Z,101432.88
2023-01-06T18:22:12.185Z,101429.25
2023-01-06T18:24:41.922Z,101428.25
2023-01-06T18:27:17.429Z,101425.53
2023-01-06T18:29:46.728Z,101426.50
2023-01-06T18:32:24.866Z,101420.03
2023-01-06T18:34:54.304Z,101422.06
2023-01-06T18:37:25.243Z,101416.56
2023-01-06T18:39:56.710Z,101422.91
2023-01-06T18:42:27.620Z,101419.31
2023-01-06T18:45:18.260Z,101424.78
2023-01-06T18:47:51.236Z,101427.66
2023-01-06T18:50:31.690Z,101420.31
2023-01-06T18:53:01.528Z,101425.91
2023-01-06T18:55:36.950Z,101424.03
2023-01-06T18:58:17.220Z,101421.31
2023-01-06T19:00:49.542Z,101425.91
2023-01-06T19:03:39.147Z,101422.53
2023-01-06T19:06:28.809Z,101422.28
2023-01-06T19:08:57.871Z,101421.53
2023-01-06T19:11:27.741Z,101425.03
2023-01-06T19:13:59.767Z,101422.28
2023-01-06T19:16:33.555Z,101424.28
2023-01-06T19:19:20.181Z,101424.16
2023-01-06T19:21:48.443Z,101428.00
2023-01-06T19:24:37.575Z,101433.38
2023-01-06T19:27:25.601Z,101430.63
2023-01-06T19:29:54.870Z,101434.38
2023-01-06T19:32:28.984Z,101422.28
2023-01-06T19:34:56.987Z,101416.19
2023-01-06T19:37:24.775Z,101416.06
2023-01-06T19:39:57.280Z,101414.06
2023-01-06T19:42:29.920Z,101412.44
2023-01-06T19:45:00.944Z,101411.56
2023-01-06T19:47:35.727Z,101407.72
2023-01-06T19:50:17.226Z,101412.31
2023-01-06T19:52:45.403Z,101414.19
2023-01-06T19:55:20.497Z,101414.06
2023-01-06T19:57:52.093Z,101414.06
2023-01-06T20:00:27.235Z,101409.47
2023-01-06T20:02:58.682Z,101419.56
2023-01-06T20:05:27.637Z,101413.31
2023-01-06T20:07:55.734Z,101409.72
2023-01-06T20:10:23.804Z,101413.31
2023-01-06T20:12:51.761Z,101415.19
2023-01-06T20:15:19.943Z,101414.31
2023-01-06T20:17:47.945Z,101414.31
2023-01-06T20:20:17.608Z,101408.84
2023-01-06T20:22:45.685Z,101402.59
2023-01-06T20:25:13.692Z,101399.03
2023-01-06T20:27:41.720Z,101401.88
2023-01-06T20:30:10.700Z,101402.75
2023-01-06T20:32:38.623Z,101402.88
2023-01-06T20:35:07.597Z,101404.75
2023-01-06T20:37:36.755Z,101402.00
2023-01-06T20:40:05.111Z,101406.72
2023-01-06T20:42:32.987Z,101401.25
2023-01-06T20:45:03.440Z,101396.88
2023-01-06T20:47:31.249Z,101398.63
2023-01-06T20:49:59.076Z,101404.25
2023-01-06T20:52:26.860Z,101399.63
2023-01-06T20:54:56.012Z,101406.84
2023-01-06T20:57:23.856Z,101407.00
2023-01-06T20:59:51.694Z,101402.50
2023-01-06T21:02:19.838Z,101414.34
2023-01-06T21:04:47.778Z,101412.59
2023-01-06T21:07:15.590Z,101401.63
2023-01-06T21:09:43.433Z,101409.84
2023-01-06T21:12:12.790Z,101404.25
2023-01-06T21:14:40.554Z,101407.09
2023-01-06T21:17:08.437Z,101410.72
2023-01-06T21:19:36.320Z,101401.63
2023-01-06T21:22:04.147Z,101401.63
2023-01-06T21:24:31.923Z,101401.63
2023-01-06T21:26:59.946Z,101397.03
2023-01-06T21:29:29.122Z,101399.63
2023-01-06T21:31:57.031Z,101396.03
2023-01-06T21:34:24.866Z,101394.28
2023-01-06T21:36:52.715Z,101400.63
2023-01-06T21:39:20.590Z,101396.03
2023-01-06T21:42:05.998Z,101402.34
2023-01-06T21:44:35.294Z,101396.88
2023-01-06T21:47:03.757Z,101397.91
2023-01-06T21:49:31.741Z,101395.00
2023-01-06T21:52:01.598Z,101394.88
2023-01-06T21:54:29.616Z,101394.00
2023-01-06T21:56:57.571Z,101394.00
2023-01-06T21:59:25.581Z,101394.00
2023-01-06T22:01:55.003Z,101389.28
2023-01-06T22:04:22.994Z,101394.88
2023-01-06T22:06:50.941Z,101392.91
2023-01-06T22:09:22.134Z,101395.53
2023-01-06T22:11:51.536Z,101391.03
2023-01-06T22:14:19.720Z,101397.38
2023-01-06T22:16:47.798Z,101399.13
2023-01-06T22:19:17.838Z,101393.53
2023-01-06T22:21:46.892Z,101394.53
2023-01-06T22:24:17.269Z,101398.00
2023-01-06T22:26:45.532Z,101391.78
2023-01-06T22:29:13.441Z,101388.06
2023-01-06T22:31:41.627Z,101395.41
2023-01-06T22:34:09.601Z,101394.38
2023-01-06T22:36:38.881Z,101397.88
2023-01-06T22:39:07.074Z,101402.59
2023-01-06T22:41:35.256Z,101398.00
2023-01-06T22:44:03.127Z,101399.75
2023-01-06T22:46:31.085Z,101397.88
2023-01-06T22:48:59.050Z,101397.88
2023-01-06T22:51:28.564Z,101404.22
2023-01-06T22:53:57.821Z,101404.09
2023-01-06T22:56:26.085Z,101406.84
2023-01-06T22:58:53.910Z,101406.84
2023-01-06T23:01:22.290Z,101404.09
2023-01-06T23:03:50.385Z,101411.34
2023-01-06T23:06:18.430Z,101405.84
2023-01-06T23:08:59.250Z,101408.47
2023-01-06T23:11:29.894Z,101411.09
2023-01-06T23:13:58.871Z,101402.00
2023-01-06T23:16:29.833Z,101411.22
2023-01-06T23:18:57.863Z,101408.47
2023-01-06T23:21:27.839Z,101412.81
2023-01-06T23:23:55.925Z,101408.47
2023-01-06T23:26:25.919Z,101406.47
2023-01-06T23:28:56.106Z,101403.72
2023-01-06T23:31:25.944Z,101399.13
2023-01-06T23:33:56.820Z,101397.41
2023-01-06T23:36:25.971Z,101392.03
2023-01-06T23:38:54.150Z,101388.31
2023-01-06T23:41:24.096Z,101388.16
2023-01-06T23:43:52.349Z,101385.56
2023-01-06T23:46:25.336Z,101379.94
2023-01-06T23:48:53.999Z,101381.19
2023-01-06T23:51:23.312Z,101388.44
2023-01-06T23:53:52.415Z,101391.16
2023-01-06T23:56:22.595Z,101386.44
2023-01-06T23:58:53.296Z,101386.56
